sensor_id;sensor_type;location;lat;lon;timestamp;P1;durP1;ratioP1;P2;durP2;ratioP2
39860;SDS011;25529;49.346;20.886;2023-06-10T00:02:10;19.38;;;7.60;;
39860;SDS011;25529;49.346;20.886;2023-06-10T00:04:36;19.15;;;6.97;;
39860;SDS011;25529;49.346;20.886;2023-06-10T00:07:05;19.02;;;7.32;;
39860;SDS011;25529;49.346;20.886;2023-06-10T00:09:37;19.02;;;7.55;;
39860;SDS011;25529;49.346;20.886;2023-06-10T00:12:06;21.52;;;7.30;;
39860;SDS011;25529;49.346;20.886;2023-06-10T00:14:37;17.48;;;6.88;;
39860;SDS011;25529;49.346;20.886;2023-06-10T00:17:03;16.80;;;6.38;;
39860;SDS011;25529;49.346;20.886;2023-06-10T00:19:28;16.85;;;6.30;;
39860;SDS011;25529;49.346;20.886;2023-06-10T00:21:55;19.70;;;7.00;;
39860;SDS011;25529;49.346;20.886;2023-06-10T00:24:20;19.80;;;7.07;;
39860;SDS011;25529;49.346;20.886;2023-06-10T00:26:46;19.08;;;7.20;;
39860;SDS011;25529;49.346;20.886;2023-06-10T00:29:11;18.48;;;7.20;;
39860;SDS011;25529;49.346;20.886;2023-06-10T00:31:37;21.33;;;7.72;;
39860;SDS011;25529;49.346;20.886;2023-06-10T00:34:02;20.65;;;7.47;;
39860;SDS011;25529;49.346;20.886;2023-06-10T00:36:28;18.63;;;7.68;;
39860;SDS011;25529;49.346;20.886;2023-06-10T00:38:53;19.45;;;8.02;;
39860;SDS011;25529;49.346;20.886;2023-06-10T00:41:19;22.77;;;8.30;;
39860;SDS011;25529;49.346;20.886;2023-06-10T00:43:44;22.58;;;7.90;;
39860;SDS011;25529;49.346;20.886;2023-06-10T00:46:11;18.60;;;7.22;;
39860;SDS011;25529;49.346;20.886;2023-06-10T00:48:37;22.20;;;8.07;;
39860;SDS011;25529;49.346;20.886;2023-06-10T00:51:03;20.55;;;8.30;;
39860;SDS011;25529;49.346;20.886;2023-06-10T00:53:30;19.65;;;8.05;;
39860;SDS011;25529;49.346;20.886;2023-06-10T00:55:55;20.48;;;8.23;;
39860;SDS011;25529;49.346;20.886;2023-06-10T00:58:20;19.95;;;7.50;;
39860;SDS011;25529;49.346;20.886;2023-06-10T01:00:46;20.95;;;8.20;;
39860;SDS011;25529;49.346;20.886;2023-06-10T01:03:11;20.52;;;7.38;;
39860;SDS011;25529;49.346;20.886;2023-06-10T01:05:37;20.02;;;7.60;;
39860;SDS011;25529;49.346;20.886;2023-06-10T01:08:05;18.52;;;7.60;;
39860;SDS011;25529;49.346;20.886;2023-06-10T01:10:41;19.42;;;7.93;;
39860;SDS011;25529;49.346;20.886;2023-06-10T01:13:07;20.27;;;8.35;;
39860;SDS011;25529;49.346;20.886;2023-06-10T01:15:36;19.75;;;7.55;;
39860;SDS011;25529;49.346;20.886;2023-06-10T01:18:03;20.67;;;7.68;;
39860;SDS011;25529;49.346;20.886;2023-06-10T01:20:29;20.95;;;8.32;;
39860;SDS011;25529;49.346;20.886;2023-06-10T01:22:55;19.45;;;7.40;;
39860;SDS011;25529;49.346;20.886;2023-06-10T01:25:23;22.65;;;7.70;;
39860;SDS011;25529;49.346;20.886;2023-06-10T01:27:53;21.70;;;7.95;;
39860;SDS011;25529;49.346;20.886;2023-06-10T01:30:18;20.88;;;7.82;;
39860;SDS011;25529;49.346;20.886;2023-06-10T01:32:49;19.20;;;7.32;;
39860;SDS011;25529;49.346;20.886;2023-06-10T01:35:15;18.73;;;7.43;;
39860;SDS011;25529;49.346;20.886;2023-06-10T01:37:41;19.00;;;6.78;;
39860;SDS011;25529;49.346;20.886;2023-06-10T01:40:08;24.25;;;7.15;;
39860;SDS011;25529;49.346;20.886;2023-06-10T01:42:34;21.27;;;7.60;;
39860;SDS011;25529;49.346;20.886;2023-06-10T01:45:00;19.63;;;7.15;;
39860;SDS011;25529;49.346;20.886;2023-06-10T01:47:25;17.42;;;7.20;;
39860;SDS011;25529;49.346;20.886;2023-06-10T01:49:51;21.65;;;7.70;;
39860;SDS011;25529;49.346;20.886;2023-06-10T01:52:16;23.50;;;8.05;;
39860;SDS011;25529;49.346;20.886;2023-06-10T01:54:41;20.77;;;7.88;;
39860;SDS011;25529;49.346;20.886;2023-06-10T01:57:07;19.73;;;8.10;;
39860;SDS011;25529;49.346;20.886;2023-06-10T01:59:32;21.42;;;7.63;;
39860;SDS011;25529;49.346;20.886;2023-06-10T02:01:57;20.58;;;7.82;;
39860;SDS011;25529;49.346;20.886;2023-06-10T02:04:23;20.70;;;7.95;;
39860;SDS011;25529;49.346;20.886;2023-06-10T02:06:48;20.23;;;7.78;;
39860;SDS011;25529;49.346;20.886;2023-06-10T02:09:13;25.27;;;8.85;;
39860;SDS011;25529;49.346;20.886;2023-06-10T02:11:39;22.20;;;8.25;;
39860;SDS011;25529;49.346;20.886;2023-06-10T02:14:04;22.75;;;8.70;;
39860;SDS011;25529;49.346;20.886;2023-06-10T02:16:30;21.42;;;8.70;;
39860;SDS011;25529;49.346;20.886;2023-06-10T02:18:56;23.23;;;9.05;;
39860;SDS011;25529;49.346;20.886;2023-06-10T02:21:21;21.00;;;8.65;;
39860;SDS011;25529;49.346;20.886;2023-06-10T02:23:47;21.50;;;8.80;;
39860;SDS011;25529;49.346;20.886;2023-06-10T02:26:12;22.30;;;8.68;;
39860;SDS011;25529;49.346;20.886;2023-06-10T02:28:37;22.45;;;8.65;;
39860;SDS011;25529;49.346;20.886;2023-06-10T02:31:03;23.75;;;8.50;;
39860;SDS011;25529;49.346;20.886;2023-06-10T02:33:28;22.25;;;8.73;;
39860;SDS011;25529;49.346;20.886;2023-06-10T02:35:53;21.67;;;8.52;;
39860;SDS011;25529;49.346;20.886;2023-06-10T02:38:19;20.38;;;8.32;;
39860;SDS011;25529;49.346;20.886;2023-06-10T02:40:44;23.23;;;8.77;;
39860;SDS011;25529;49.346;20.886;2023-06-10T02:43:09;22.20;;;8.52;;
39860;SDS011;25529;49.346;20.886;2023-06-10T02:45:35;21.20;;;8.23;;
39860;SDS011;25529;49.346;20.886;2023-06-10T02:48:00;21.75;;;9.15;;
39860;SDS011;25529;49.346;20.886;2023-06-10T02:50:26;23.73;;;9.68;;
39860;SDS011;25529;49.346;20.886;2023-06-10T02:52:51;22.30;;;8.90;;
39860;SDS011;25529;49.346;20.886;2023-06-10T02:55:16;22.90;;;9.32;;
39860;SDS011;25529;49.346;20.886;2023-06-10T02:57:42;21.23;;;8.68;;
39860;SDS011;25529;49.346;20.886;2023-06-10T03:00:07;25.60;;;9.82;;
39860;SDS011;25529;49.346;20.886;2023-06-10T03:02:36;22.40;;;10.10;;
39860;SDS011;25529;49.346;20.886;2023-06-10T03:05:03;23.42;;;9.50;;
39860;SDS011;25529;49.346;20.886;2023-06-10T03:07:30;23.77;;;9.85;;
39860;SDS011;25529;49.346;20.886;2023-06-10T03:09:56;23.65;;;9.05;;
39860;SDS011;25529;49.346;20.886;2023-06-10T03:12:21;23.10;;;9.63;;
39860;SDS011;25529;49.346;20.886;2023-06-10T03:14:46;22.73;;;9.95;;
39860;SDS011;25529;49.346;20.886;2023-06-10T03:17:12;22.58;;;9.73;;
39860;SDS011;25529;49.346;20.886;2023-06-10T03:19:37;24.90;;;10.70;;
39860;SDS011;25529;49.346;20.886;2023-06-10T03:22:13;33.08;;;11.65;;
39860;SDS011;25529;49.346;20.886;2023-06-10T03:24:39;23.02;;;10.43;;
39860;SDS011;25529;49.346;20.886;2023-06-10T03:27:06;21.83;;;9.40;;
39860;SDS011;25529;49.346;20.886;2023-06-10T03:29:32;20.92;;;9.45;;
39860;SDS011;25529;49.346;20.886;2023-06-10T03:31:57;24.00;;;10.38;;
39860;SDS011;25529;49.346;20.886;2023-06-10T03:34:22;23.50;;;9.77;;
39860;SDS011;25529;49.346;20.886;2023-06-10T03:36:48;23.33;;;9.73;;
39860;SDS011;25529;49.346;20.886;2023-06-10T03:39:14;22.27;;;9.60;;
39860;SDS011;25529;49.346;20.886;2023-06-10T03:41:39;21.20;;;9.15;;
39860;SDS011;25529;49.346;20.886;2023-06-10T03:44:04;22.05;;;8.82;;
39860;SDS011;25529;49.346;20.886;2023-06-10T03:46:29;20.52;;;9.05;;
39860;SDS011;25529;49.346;20.886;2023-06-10T03:48:55;21.80;;;9.20;;
39860;SDS011;25529;49.346;20.886;2023-06-10T03:51:21;23.73;;;10.80;;
39860;SDS011;25529;49.346;20.886;2023-06-10T03:53:46;23.40;;;10.20;;
39860;SDS011;25529;49.346;20.886;2023-06-10T03:56:11;20.77;;;9.10;;
39860;SDS011;25529;49.346;20.886;2023-06-10T03:58:36;21.50;;;8.35;;
39860;SDS011;25529;49.346;20.886;2023-06-10T04:01:02;19.50;;;8.27;;
39860;SDS011;25529;49.346;20.886;2023-06-10T04:03:27;19.35;;;7.70;;
39860;SDS011;25529;49.346;20.886;2023-06-10T04:05:53;20.88;;;8.02;;
39860;SDS011;25529;49.346;20.886;2023-06-10T04:08:19;20.27;;;7.78;;
39860;SDS011;25529;49.346;20.886;2023-06-10T04:10:45;18.45;;;7.53;;
39860;SDS011;25529;49.346;20.886;2023-06-10T04:13:11;19.02;;;8.02;;
39860;SDS011;25529;49.346;20.886;2023-06-10T04:15:36;20.98;;;7.85;;
39860;SDS011;25529;49.346;20.886;2023-06-10T04:18:01;19.30;;;7.40;;
39860;SDS011;25529;49.346;20.886;2023-06-10T04:20:27;18.45;;;7.20;;
39860;SDS011;25529;49.346;20.886;2023-06-10T04:22:52;19.40;;;7.47;;
39860;SDS011;25529;49.346;20.886;2023-06-10T04:25:17;20.65;;;7.57;;
39860;SDS011;25529;49.346;20.886;2023-06-10T04:27:43;20.88;;;7.97;;
39860;SDS011;25529;49.346;20.886;2023-06-10T04:30:08;19.42;;;7.68;;
39860;SDS011;25529;49.346;20.886;2023-06-10T04:32:34;19.75;;;8.05;;
39860;SDS011;25529;49.346;20.886;2023-06-10T04:34:59;21.55;;;7.95;;
39860;SDS011;25529;49.346;20.886;2023-06-10T04:37:25;20.40;;;8.50;;
39860;SDS011;25529;49.346;20.886;2023-06-10T04:39:50;24.48;;;12.02;;
39860;SDS011;25529;49.346;20.886;2023-06-10T04:42:15;29.77;;;15.20;;
39860;SDS011;25529;49.346;20.886;2023-06-10T04:44:41;25.13;;;12.52;;
39860;SDS011;25529;49.346;20.886;2023-06-10T04:47:06;34.78;;;19.73;;
39860;SDS011;25529;49.346;20.886;2023-06-10T04:49:33;36.20;;;21.83;;
39860;SDS011;25529;49.346;20.886;2023-06-10T04:51:58;31.77;;;18.20;;
39860;SDS011;25529;49.346;20.886;2023-06-10T04:54:25;29.02;;;15.65;;
39860;SDS011;25529;49.346;20.886;2023-06-10T04:56:50;27.65;;;14.93;;
39860;SDS011;25529;49.346;20.886;2023-06-10T04:59:15;24.15;;;11.80;;
39860;SDS011;25529;49.346;20.886;2023-06-10T05:01:41;24.50;;;11.30;;
39860;SDS011;25529;49.346;20.886;2023-06-10T05:04:06;23.92;;;9.85;;
39860;SDS011;25529;49.346;20.886;2023-06-10T05:06:31;22.38;;;9.23;;
39860;SDS011;25529;49.346;20.886;2023-06-10T05:08:56;21.30;;;9.25;;
39860;SDS011;25529;49.346;20.886;2023-06-10T05:11:22;21.40;;;8.60;;
39860;SDS011;25529;49.346;20.886;2023-06-10T05:13:47;21.52;;;8.38;;
39860;SDS011;25529;49.346;20.886;2023-06-10T05:16:13;20.13;;;8.23;;
39860;SDS011;25529;49.346;20.886;2023-06-10T05:18:40;19.50;;;7.63;;
39860;SDS011;25529;49.346;20.886;2023-06-10T05:21:05;21.67;;;8.73;;
39860;SDS011;25529;49.346;20.886;2023-06-10T05:23:31;21.70;;;9.07;;
39860;SDS011;25529;49.346;20.886;2023-06-10T05:25:56;19.92;;;8.30;;
39860;SDS011;25529;49.346;20.886;2023-06-10T05:28:22;21.00;;;8.38;;
39860;SDS011;25529;49.346;20.886;2023-06-10T05:30:47;21.27;;;8.18;;
39860;SDS011;25529;49.346;20.886;2023-06-10T05:33:12;41.28;;;24.48;;
39860;SDS011;25529;49.346;20.886;2023-06-10T05:35:38;40.78;;;24.15;;
39860;SDS011;25529;49.346;20.886;2023-06-10T05:38:03;32.47;;;18.23;;
39860;SDS011;25529;49.346;20.886;2023-06-10T05:40:28;28.95;;;16.42;;
39860;SDS011;25529;49.346;20.886;2023-06-10T05:42:54;29.17;;;14.93;;
39860;SDS011;25529;49.346;20.886;2023-06-10T05:45:20;27.00;;;12.40;;
39860;SDS011;25529;49.346;20.886;2023-06-10T05:47:45;41.47;;;24.75;;
39860;SDS011;25529;49.346;20.886;2023-06-10T05:50:17;44.20;;;27.73;;
39860;SDS011;25529;49.346;20.886;2023-06-10T05:53:03;38.45;;;24.33;;
39860;SDS011;25529;49.346;20.886;2023-06-10T05:55:34;29.27;;;16.02;;
39860;SDS011;25529;49.346;20.886;2023-06-10T06:08:21;124.13;;;96.60;;
39860;SDS011;25529;49.346;20.886;2023-06-10T06:10:46;116.13;;;90.53;;
39860;SDS011;25529;49.346;20.886;2023-06-10T06:13:13;80.82;;;63.42;;
39860;SDS011;25529;49.346;20.886;2023-06-10T06:34:33;30.15;;;17.20;;
39860;SDS011;25529;49.346;20.886;2023-06-10T06:36:58;27.95;;;14.55;;
39860;SDS011;25529;49.346;20.886;2023-06-10T06:42:26;32.70;;;19.90;;
39860;SDS011;25529;49.346;20.886;2023-06-10T06:45:02;31.70;;;18.75;;
39860;SDS011;25529;49.346;20.886;2023-06-10T06:47:46;28.80;;;16.35;;
39860;SDS011;25529;49.346;20.886;2023-06-10T06:50:15;25.05;;;13.52;;
39860;SDS011;25529;49.346;20.886;2023-06-10T06:52:44;23.50;;;11.75;;
39860;SDS011;25529;49.346;20.886;2023-06-10T06:55:15;21.55;;;10.25;;
39860;SDS011;25529;49.346;20.886;2023-06-10T06:57:40;20.92;;;9.43;;
39860;SDS011;25529;49.346;20.886;2023-06-10T07:00:06;21.10;;;8.90;;
39860;SDS011;25529;49.346;20.886;2023-06-10T07:02:35;21.50;;;9.38;;
39860;SDS011;25529;49.346;20.886;2023-06-10T07:05:01;48.08;;;29.40;;
39860;SDS011;25529;49.346;20.886;2023-06-10T07:07:26;39.25;;;24.27;;
39860;SDS011;25529;49.346;20.886;2023-06-10T07:09:54;31.95;;;17.45;;
39860;SDS011;25529;49.346;20.886;2023-06-10T07:12:20;29.02;;;15.02;;
39860;SDS011;25529;49.346;20.886;2023-06-10T07:14:49;28.80;;;14.13;;
39860;SDS011;25529;49.346;20.886;2023-06-10T07:45:09;27.17;;;13.32;;
39860;SDS011;25529;49.346;20.886;2023-06-10T07:53:27;28.50;;;13.32;;
39860;SDS011;25529;49.346;20.886;2023-06-10T07:55:53;133.98;;;106.97;;
39860;SDS011;25529;49.346;20.886;2023-06-10T07:58:18;77.32;;;54.65;;
39860;SDS011;25529;49.346;20.886;2023-06-10T08:00:44;49.00;;;33.03;;
39860;SDS011;25529;49.346;20.886;2023-06-10T08:03:09;45.08;;;27.73;;
39860;SDS011;25529;49.346;20.886;2023-06-10T08:05:35;41.47;;;23.90;;
39860;SDS011;25529;49.346;20.886;2023-06-10T08:08:00;33.65;;;19.15;;
39860;SDS011;25529;49.346;20.886;2023-06-10T08:10:25;30.90;;;17.50;;
39860;SDS011;25529;49.346;20.886;2023-06-10T08:12:51;33.55;;;18.23;;
39860;SDS011;25529;49.346;20.886;2023-06-10T08:15:16;31.02;;;16.38;;
39860;SDS011;25529;49.346;20.886;2023-06-10T08:17:41;29.77;;;16.27;;
39860;SDS011;25529;49.346;20.886;2023-06-10T08:20:09;31.25;;;15.07;;
39860;SDS011;25529;49.346;20.886;2023-06-10T08:22:35;29.40;;;15.15;;
39860;SDS011;25529;49.346;20.886;2023-06-10T08:25:00;28.00;;;14.90;;
39860;SDS011;25529;49.346;20.886;2023-06-10T08:27:36;27.52;;;14.73;;
39860;SDS011;25529;49.346;20.886;2023-06-10T08:30:04;27.17;;;14.80;;
39860;SDS011;25529;49.346;20.886;2023-06-10T08:32:39;27.00;;;14.57;;
39860;SDS011;25529;49.346;20.886;2023-06-10T08:35:04;26.63;;;15.00;;
39860;SDS011;25529;49.346;20.886;2023-06-10T08:37:30;27.40;;;14.65;;
39860;SDS011;25529;49.346;20.886;2023-06-10T08:39:55;29.75;;;15.90;;
39860;SDS011;25529;49.346;20.886;2023-06-10T08:42:28;28.05;;;14.68;;
39860;SDS011;25529;49.346;20.886;2023-06-10T08:44:54;28.77;;;15.65;;
39860;SDS011;25529;49.346;20.886;2023-06-10T08:47:20;30.30;;;15.50;;
39860;SDS011;25529;49.346;20.886;2023-06-10T08:49:47;27.60;;;15.23;;
39860;SDS011;25529;49.346;20.886;2023-06-10T08:52:19;29.77;;;17.35;;
39860;SDS011;25529;49.346;20.886;2023-06-10T08:54:48;29.80;;;17.20;;
39860;SDS011;25529;49.346;20.886;2023-06-10T08:57:14;31.67;;;17.42;;
39860;SDS011;25529;49.346;20.886;2023-06-10T08:59:40;32.05;;;18.13;;
39860;SDS011;25529;49.346;20.886;2023-06-10T09:02:06;32.17;;;18.50;;
39860;SDS011;25529;49.346;20.886;2023-06-10T09:04:32;32.17;;;19.63;;
39860;SDS011;25529;49.346;20.886;2023-06-10T09:07:03;32.20;;;19.63;;
39860;SDS011;25529;49.346;20.886;2023-06-10T09:09:32;31.47;;;19.13;;
39860;SDS011;25529;49.346;20.886;2023-06-10T09:11:57;32.33;;;19.45;;
39860;SDS011;25529;49.346;20.886;2023-06-10T09:14:23;32.75;;;18.60;;
39860;SDS011;25529;49.346;20.886;2023-06-10T09:16:52;32.35;;;18.63;;
39860;SDS011;25529;49.346;20.886;2023-06-10T09:19:27;34.38;;;19.33;;
39860;SDS011;25529;49.346;20.886;2023-06-10T09:21:55;36.08;;;20.10;;
39860;SDS011;25529;49.346;20.886;2023-06-10T09:24:24;31.75;;;19.50;;
39860;SDS011;25529;49.346;20.886;2023-06-10T09:26:50;33.33;;;20.50;;
39860;SDS011;25529;49.346;20.886;2023-06-10T09:29:16;33.47;;;19.33;;
39860;SDS011;25529;49.346;20.886;2023-06-10T09:31:44;33.13;;;19.58;;
39860;SDS011;25529;49.346;20.886;2023-06-10T09:34:14;33.92;;;19.05;;
39860;SDS011;25529;49.346;20.886;2023-06-10T09:36:40;30.20;;;19.10;;
39860;SDS011;25529;49.346;20.886;2023-06-10T09:39:13;33.15;;;18.98;;
39860;SDS011;25529;49.346;20.886;2023-06-10T09:41:40;31.42;;;19.88;;
39860;SDS011;25529;49.346;20.886;2023-06-10T09:44:24;32.13;;;19.38;;
39860;SDS011;25529;49.346;20.886;2023-06-10T09:46:52;30.35;;;18.25;;
39860;SDS011;25529;49.346;20.886;2023-06-10T09:49:19;31.27;;;18.98;;
39860;SDS011;25529;49.346;20.886;2023-06-10T09:51:54;34.15;;;18.98;;
39860;SDS011;25529;49.346;20.886;2023-06-10T09:54:20;33.83;;;19.92;;
39860;SDS011;25529;49.346;20.886;2023-06-10T09:56:49;33.22;;;20.65;;
39860;SDS011;25529;49.346;20.886;2023-06-10T09:59:16;32.50;;;20.02;;
39860;SDS011;25529;49.346;20.886;2023-06-10T10:01:56;34.33;;;20.75;;
39860;SDS011;25529;49.346;20.886;2023-06-10T10:04:25;33.78;;;20.33;;
39860;SDS011;25529;49.346;20.886;2023-06-10T10:06:50;31.17;;;20.05;;
39860;SDS011;25529;49.346;20.886;2023-06-10T10:09:16;32.38;;;19.85;;
39860;SDS011;25529;49.346;20.886;2023-06-10T10:11:41;34.38;;;20.02;;
39860;SDS011;25529;49.346;20.886;2023-06-10T10:14:08;33.42;;;21.10;;
39860;SDS011;25529;49.346;20.886;2023-06-10T10:16:37;34.08;;;20.85;;
39860;SDS011;25529;49.346;20.886;2023-06-10T10:19:53;33.40;;;21.17;;
39860;SDS011;25529;49.346;20.886;2023-06-10T10:21:54;33.45;;;21.38;;
39860;SDS011;25529;49.346;20.886;2023-06-10T10:27:17;34.67;;;22.52;;
39860;SDS011;25529;49.346;20.886;2023-06-10T10:29:43;35.90;;;22.75;;
39860;SDS011;25529;49.346;20.886;2023-06-10T10:32:13;34.22;;;21.63;;
39860;SDS011;25529;49.346;20.886;2023-06-10T10:37:10;33.22;;;21.63;;
39860;SDS011;25529;49.346;20.886;2023-06-10T10:39:35;35.08;;;22.63;;
39860;SDS011;25529;49.346;20.886;2023-06-10T10:42:01;35.25;;;22.55;;
39860;SDS011;25529;49.346;20.886;2023-06-10T10:44:29;32.83;;;21.77;;
39860;SDS011;25529;49.346;20.886;2023-06-10T10:46:54;32.92;;;21.63;;
39860;SDS011;25529;49.346;20.886;2023-06-10T10:49:21;34.60;;;21.80;;
39860;SDS011;25529;49.346;20.886;2023-06-10T10:51:54;35.10;;;22.58;;
39860;SDS011;25529;49.346;20.886;2023-06-10T10:54:20;32.47;;;21.85;;
39860;SDS011;25529;49.346;20.886;2023-06-10T10:59:17;33.77;;;21.30;;
39860;SDS011;25529;49.346;20.886;2023-06-10T11:01:54;35.97;;;21.83;;
39860;SDS011;25529;49.346;20.886;2023-06-10T11:07:54;70.38;;;45.25;;
39860;SDS011;25529;49.346;20.886;2023-06-10T11:10:41;60.45;;;38.00;;
39860;SDS011;25529;49.346;20.886;2023-06-10T11:13:36;52.83;;;32.47;;
39860;SDS011;25529;49.346;20.886;2023-06-10T11:16:03;42.00;;;25.83;;
39860;SDS011;25529;49.346;20.886;2023-06-10T11:18:29;37.08;;;23.90;;
39860;SDS011;25529;49.346;20.886;2023-06-10T11:20:58;44.03;;;26.00;;
39860;SDS011;25529;49.346;20.886;2023-06-10T11:28:37;31.58;;;19.38;;
39860;SDS011;25529;49.346;20.886;2023-06-10T11:31:02;32.40;;;19.25;;
39860;SDS011;25529;49.346;20.886;2023-06-10T11:33:28;31.92;;;19.42;;
39860;SDS011;25529;49.346;20.886;2023-06-10T11:35:53;33.13;;;19.20;;
39860;SDS011;25529;49.346;20.886;2023-06-10T11:38:19;31.20;;;18.98;;
39860;SDS011;25529;49.346;20.886;2023-06-10T11:40:48;34.47;;;20.45;;
39860;SDS011;25529;49.346;20.886;2023-06-10T11:43:14;34.25;;;19.95;;
39860;SDS011;25529;49.346;20.886;2023-06-10T11:45:41;29.20;;;19.13;;
39860;SDS011;25529;49.346;20.886;2023-06-10T11:48:06;33.47;;;19.75;;
39860;SDS011;25529;49.346;20.886;2023-06-10T11:50:32;33.33;;;20.75;;
39860;SDS011;25529;49.346;20.886;2023-06-10T11:52:58;32.63;;;19.88;;
39860;SDS011;25529;49.346;20.886;2023-06-10T11:55:24;31.58;;;20.45;;
39860;SDS011;25529;49.346;20.886;2023-06-10T11:57:50;34.65;;;20.38;;
39860;SDS011;25529;49.346;20.886;2023-06-10T12:00:22;32.72;;;21.25;;
39860;SDS011;25529;49.346;20.886;2023-06-10T12:03:00;33.28;;;21.00;;
39860;SDS011;25529;49.346;20.886;2023-06-10T12:05:25;34.05;;;19.38;;
39860;SDS011;25529;49.346;20.886;2023-06-10T12:08:07;33.22;;;20.85;;
39860;SDS011;25529;49.346;20.886;2023-06-10T12:10:50;32.17;;;20.38;;
39860;SDS011;25529;49.346;20.886;2023-06-10T12:13:19;30.00;;;19.40;;
39860;SDS011;25529;49.346;20.886;2023-06-10T12:15:45;34.97;;;19.88;;
39860;SDS011;25529;49.346;20.886;2023-06-10T12:18:43;34.40;;;19.95;;
39860;SDS011;25529;49.346;20.886;2023-06-10T12:21:01;32.50;;;19.25;;
39860;SDS011;25529;49.346;20.886;2023-06-10T12:23:28;38.08;;;20.30;;
39860;SDS011;25529;49.346;20.886;2023-06-10T12:25:54;30.70;;;18.20;;
39860;SDS011;25529;49.346;20.886;2023-06-10T12:28:24;30.95;;;19.35;;
39860;SDS011;25529;49.346;20.886;2023-06-10T12:30:50;30.88;;;19.25;;
39860;SDS011;25529;49.346;20.886;2023-06-10T12:33:36;31.15;;;19.88;;
39860;SDS011;25529;49.346;20.886;2023-06-10T12:41:49;65.32;;;40.75;;
39860;SDS011;25529;49.346;20.886;2023-06-10T12:44:27;37.13;;;22.58;;
39860;SDS011;25529;49.346;20.886;2023-06-10T12:46:56;35.10;;;20.60;;
39860;SDS011;25529;49.346;20.886;2023-06-10T12:49:22;38.22;;;23.52;;
39860;SDS011;25529;49.346;20.886;2023-06-10T12:51:47;38.92;;;22.73;;
39860;SDS011;25529;49.346;20.886;2023-06-10T12:54:13;31.48;;;20.52;;
39860;SDS011;25529;49.346;20.886;2023-06-10T12:56:38;34.15;;;20.08;;
39860;SDS011;25529;49.346;20.886;2023-06-10T12:59:07;27.80;;;17.17;;
39860;SDS011;25529;49.346;20.886;2023-06-10T13:07:40;29.58;;;16.38;;
39860;SDS011;25529;49.346;20.886;2023-06-10T13:10:07;30.70;;;15.75;;
39860;SDS011;25529;49.346;20.886;2023-06-10T13:12:35;32.05;;;15.52;;
39860;SDS011;25529;49.346;20.886;2023-06-10T13:15:02;27.42;;;15.85;;
39860;SDS011;25529;49.346;20.886;2023-06-10T13:17:27;30.60;;;15.73;;
39860;SDS011;25529;49.346;20.886;2023-06-10T13:19:53;28.20;;;15.82;;
39860;SDS011;25529;49.346;20.886;2023-06-10T13:22:18;26.95;;;15.35;;
39860;SDS011;25529;49.346;20.886;2023-06-10T13:24:51;29.42;;;16.73;;
39860;SDS011;25529;49.346;20.886;2023-06-10T13:27:17;42.88;;;23.98;;
39860;SDS011;25529;49.346;20.886;2023-06-10T13:29:42;31.13;;;17.45;;
39860;SDS011;25529;49.346;20.886;2023-06-10T13:32:08;31.48;;;16.00;;
39860;SDS011;25529;49.346;20.886;2023-06-10T13:34:33;36.65;;;18.17;;
39860;SDS011;25529;49.346;20.886;2023-06-10T13:36:58;34.25;;;18.63;;
39860;SDS011;25529;49.346;20.886;2023-06-10T13:39:45;30.67;;;17.23;;
39860;SDS011;25529;49.346;20.886;2023-06-10T13:42:43;27.95;;;16.02;;
39860;SDS011;25529;49.346;20.886;2023-06-10T13:45:30;32.30;;;17.23;;
39860;SDS011;25529;49.346;20.886;2023-06-10T13:47:55;30.20;;;16.35;;
39860;SDS011;25529;49.346;20.886;2023-06-10T13:50:26;29.27;;;16.50;;
39860;SDS011;25529;49.346;20.886;2023-06-10T13:52:51;29.58;;;15.82;;
39860;SDS011;25529;49.346;20.886;2023-06-10T13:55:17;27.73;;;14.80;;
39860;SDS011;25529;49.346;20.886;2023-06-10T13:58:04;29.55;;;15.55;;
39860;SDS011;25529;49.346;20.886;2023-06-10T14:00:47;30.17;;;15.48;;
39860;SDS011;25529;49.346;20.886;2023-06-10T14:03:18;31.55;;;13.98;;
39860;SDS011;25529;49.346;20.886;2023-06-10T14:05:43;27.58;;;13.07;;
39860;SDS011;25529;49.346;20.886;2023-06-10T14:08:09;25.67;;;12.45;;
39860;SDS011;25529;49.346;20.886;2023-06-10T14:13:37;27.70;;;12.65;;
39860;SDS011;25529;49.346;20.886;2023-06-10T14:16:03;26.70;;;12.50;;
39860;SDS011;25529;49.346;20.886;2023-06-10T14:18:40;28.38;;;13.05;;
39860;SDS011;25529;49.346;20.886;2023-06-10T14:21:27;28.63;;;12.82;;
39860;SDS011;25529;49.346;20.886;2023-06-10T14:24:25;25.67;;;12.40;;
39860;SDS011;25529;49.346;20.886;2023-06-10T14:27:02;50.95;;;29.73;;
39860;SDS011;25529;49.346;20.886;2023-06-10T14:29:27;48.60;;;29.52;;
39860;SDS011;25529;49.346;20.886;2023-06-10T14:32:00;34.92;;;19.88;;
39860;SDS011;25529;49.346;20.886;2023-06-10T14:34:35;31.38;;;15.43;;
39860;SDS011;25529;49.346;20.886;2023-06-10T14:37:04;28.55;;;14.02;;
39860;SDS011;25529;49.346;20.886;2023-06-10T14:39:32;46.63;;;26.33;;
39860;SDS011;25529;49.346;20.886;2023-06-10T14:41:57;51.63;;;29.20;;
39860;SDS011;25529;49.346;20.886;2023-06-10T14:47:14;34.80;;;18.88;;
39860;SDS011;25529;49.346;20.886;2023-06-10T14:49:43;30.02;;;15.50;;
39860;SDS011;25529;49.346;20.886;2023-06-10T15:12:52;37.05;;;23.73;;
39860;SDS011;25529;49.346;20.886;2023-06-10T15:15:21;28.88;;;17.45;;
39860;SDS011;25529;49.346;20.886;2023-06-10T15:17:47;28.13;;;15.85;;
39860;SDS011;25529;49.346;20.886;2023-06-10T15:26:08;25.70;;;13.43;;
39860;SDS011;25529;49.346;20.886;2023-06-10T15:31:43;26.83;;;13.90;;
39860;SDS011;25529;49.346;20.886;2023-06-10T15:40:14;27.05;;;15.45;;
39860;SDS011;25529;49.346;20.886;2023-06-10T15:42:43;26.60;;;14.68;;
39860;SDS011;25529;49.346;20.886;2023-06-10T15:45:09;25.83;;;14.23;;
39860;SDS011;25529;49.346;20.886;2023-06-10T15:47:37;28.13;;;14.27;;
39860;SDS011;25529;49.346;20.886;2023-06-10T15:50:03;28.10;;;14.90;;
39860;SDS011;25529;49.346;20.886;2023-06-10T15:52:49;27.23;;;14.32;;
39860;SDS011;25529;49.346;20.886;2023-06-10T15:55:14;24.60;;;14.18;;
39860;SDS011;25529;49.346;20.886;2023-06-10T15:57:40;26.38;;;13.82;;
39860;SDS011;25529;49.346;20.886;2023-06-10T16:00:05;23.95;;;13.63;;
39860;SDS011;25529;49.346;20.886;2023-06-10T16:02:43;26.40;;;13.50;;
39860;SDS011;25529;49.346;20.886;2023-06-10T16:05:08;27.55;;;13.85;;
39860;SDS011;25529;49.346;20.886;2023-06-10T16:07:39;26.58;;;13.50;;
39860;SDS011;25529;49.346;20.886;2023-06-10T16:10:05;70.47;;;53.05;;
39860;SDS011;25529;49.346;20.886;2023-06-10T16:12:31;33.63;;;21.02;;
39860;SDS011;25529;49.346;20.886;2023-06-10T16:14:56;31.67;;;18.08;;
39860;SDS011;25529;49.346;20.886;2023-06-10T16:17:24;26.58;;;15.15;;
39860;SDS011;25529;49.346;20.886;2023-06-10T16:19:50;26.15;;;13.70;;
39860;SDS011;25529;49.346;20.886;2023-06-10T16:22:16;23.05;;;12.23;;
39860;SDS011;25529;49.346;20.886;2023-06-10T16:24:41;26.55;;;12.48;;
39860;SDS011;25529;49.346;20.886;2023-06-10T16:27:06;23.70;;;12.15;;
39860;SDS011;25529;49.346;20.886;2023-06-10T16:29:32;22.65;;;12.18;;
39860;SDS011;25529;49.346;20.886;2023-06-10T16:31:57;24.15;;;12.27;;
39860;SDS011;25529;49.346;20.886;2023-06-10T16:34:23;31.30;;;18.25;;